createdAt,value
2017-06-26T00:05:56.876Z,1000.7
2017-06-26T00:16:06.293Z,1000.7
2017-06-26T00:26:15.700Z,1000.7
2017-06-26T00:36:25.088Z,1000.7
2017-06-26T00:46:34.442Z,1000.7
2017-06-26T00:56:43.853Z,1000.6
2017-06-26T01:06:53.376Z,1001
2017-06-26T01:17:02.891Z,1000.8
2017-06-26T01:27:12.386Z,1000.7
2017-06-26T01:37:21.875Z,1000.6
2017-06-26T01:47:31.282Z,1000.6
2017-06-26T01:57:40.712Z,1000.6
2017-06-26T02:07:50.150Z,1000.6
2017-06-26T02:17:59.511Z,1000.7
2017-06-26T02:28:09.006Z,1000.5
2017-06-26T02:38:18.381Z,1000.6
2017-06-26T02:48:27.784Z,1000.5
2017-06-26T02:58:37.221Z,1001.1
2017-06-26T03:08:46.713Z,999.2
2017-06-26T03:18:56.238Z,998.7
2017-06-26T03:29:05.780Z,998.5
2017-06-26T03:39:15.346Z,998.2
2017-06-26T03:49:24.879Z,1001.4
2017-06-26T03:59:34.394Z,1001.3
2017-06-26T04:09:43.902Z,1001.5
2017-06-26T04:19:53.400Z,1001.9
2017-06-26T04:30:02.980Z,1002.2
2017-06-26T04:40:12.478Z,1002.6
2017-06-26T04:50:21.890Z,1004
2017-06-26T05:00:31.308Z,1001.6
2017-06-26T05:10:40.649Z,1001.6
2017-06-26T05:20:49.782Z,1001.7
2017-06-26T05:30:58.940Z,1001.7
2017-06-26T05:41:07.970Z,1001.8
2017-06-26T05:51:17.044Z,1002
2017-06-26T06:01:26.111Z,1002.1
2017-06-26T06:11:34.909Z,1002.1
2017-06-26T06:21:43.566Z,1002.1
2017-06-26T06:31:52.153Z,1002.3
2017-06-26T06:42:00.794Z,1002.3
2017-06-26T06:52:09.407Z,1002.3
2017-06-26T07:02:18.071Z,1002.3
2017-06-26T07:12:26.801Z,1002.4
2017-06-26T07:22:35.441Z,1002.5
2017-06-26T07:32:43.877Z,1002.6
2017-06-26T07:42:51.967Z,1002.6
2017-06-26T07:53:00.132Z,1002.8
2017-06-26T08:03:08.211Z,1002.8
2017-06-26T08:13:16.357Z,1002.9
2017-06-26T08:23:24.645Z,1003
2017-06-26T08:33:32.785Z,1003
2017-06-26T08:43:40.621Z,1003.3
2017-06-26T08:53:48.517Z,1003.1
2017-06-26T09:03:56.219Z,1003.4
2017-06-26T09:14:04.286Z,1003.3
2017-06-26T09:24:12.082Z,1003.3
2017-06-26T09:34:19.892Z,1003.3
2017-06-26T09:44:27.825Z,1003.5
2017-06-26T09:54:35.723Z,1003.3
2017-06-26T10:04:43.442Z,1003.3
2017-06-26T10:14:51.135Z,1003.3
2017-06-26T10:24:58.692Z,1003.4
2017-06-26T10:35:06.274Z,1003.5
2017-06-26T10:45:14.026Z,1003.5
2017-06-26T10:55:21.880Z,1003.7
2017-06-26T11:05:29.616Z,1003.6
2017-06-26T11:15:37.329Z,1003.6
2017-06-26T11:25:44.896Z,1003.6
2017-06-26T11:35:52.497Z,1003.6
2017-06-26T11:45:59.952Z,1003.6
2017-06-26T11:56:07.291Z,1003.6
2017-06-26T12:06:14.807Z,1003.6
2017-06-26T12:16:22.416Z,1003.6
2017-06-26T12:26:30.122Z,1003.7
2017-06-26T12:36:37.682Z,1003.9
2017-06-26T12:46:45.195Z,1004
2017-06-26T12:56:52.549Z,1004
2017-06-26T13:06:59.783Z,1003.9
2017-06-26T13:17:07.002Z,1003.7
2017-06-26T13:27:14.278Z,1003.8
2017-06-26T13:37:21.870Z,1003.8
2017-06-26T13:47:29.335Z,1004
2017-06-26T13:57:36.623Z,1003.7
2017-06-26T14:07:43.941Z,1003.7
2017-06-26T14:17:51.486Z,1003.6
2017-06-26T14:27:58.839Z,1003.6
2017-06-26T14:38:06.126Z,1003.6
2017-06-26T14:48:13.348Z,1003.6
2017-06-26T14:58:20.749Z,1003.6
2017-06-26T15:08:28.428Z,1003.5
2017-06-26T15:18:36.097Z,1003.6
2017-06-26T15:28:43.457Z,1003.6
2017-06-26T15:38:50.657Z,1003.5
2017-06-26T15:48:57.704Z,1003.5
2017-06-26T15:59:04.767Z,1003.5
2017-06-26T16:09:11.772Z,1003.4
2017-06-26T16:19:18.878Z,1003.3
2017-06-26T16:29:25.905Z,1003.2
2017-06-26T16:39:32.960Z,1003.2
2017-06-26T16:49:40.055Z,1003.3
2017-06-26T16:59:47.259Z,1003.3
2017-06-26T17:09:54.545Z,1003.2
2017-06-26T17:20:01.981Z,1003.2
2017-06-26T17:30:09.407Z,1003.1
2017-06-26T17:40:17.186Z,1003.2
2017-06-26T17:50:25.119Z,1003.2
2017-06-26T18:00:32.959Z,1002.9
2017-06-26T18:10:40.809Z,1003
2017-06-26T18:20:48.787Z,1002.8
2017-06-26T18:30:56.857Z,1002.9
2017-06-26T18:41:05.008Z,1002.7
2017-06-26T18:51:13.277Z,1002.7
2017-06-26T19:01:21.714Z,1002.7
2017-06-26T19:11:30.272Z,1002.6
2017-06-26T19:21:38.974Z,1002.7
2017-06-26T19:31:47.738Z,1002.7
2017-06-26T19:41:56.707Z,1002.9
2017-06-26T19:52:05.795Z,1003
2017-06-26T20:02:15.007Z,1003.2
2017-06-26T20:12:24.359Z,1003.5
2017-06-26T20:22:33.734Z,1003.6
2017-06-26T20:32:43.354Z,1003.6
2017-06-26T20:42:52.781Z,1003.6
2017-06-26T20:53:02.378Z,1003.6
2017-06-26T21:03:12.042Z,1003.6
2017-06-26T21:13:21.722Z,1003.8
2017-06-26T21:23:31.446Z,1003.8
2017-06-26T21:33:41.207Z,1003.9
2017-06-26T21:43:50.974Z,1003.9
2017-06-26T21:54:00.753Z,1004
2017-06-26T22:04:10.550Z,1004
2017-06-26T22:14:20.394Z,1004.1
2017-06-26T22:24:30.211Z,1004
2017-06-26T22:34:40.160Z,1003.9
2017-06-26T22:44:50.186Z,1003.9
2017-06-26T22:54:59.976Z,1003.9
2017-06-26T23:05:09.924Z,1003.9
2017-06-26T23:15:19.891Z,1003.9
2017-06-26T23:25:29.891Z,1003.9
2017-06-26T23:35:39.903Z,1003.8
2017-06-26T23:45:50.005Z,1003.6
2017-06-26T23:56:00.169Z,1003.7
